Time;durP1;ratioP1;P1;durP2;ratioP2;P2;SDS_P1;SDS_P2;PMS_P1;PMS_P2;Temp;Humidity;BMP_temperature;BMP_pressure;BME280_temperature;BME280_humidity;BME280_pressure;Samples;Min_cycle;Max_cycle;Signal;HPM_P1;HPM_P2
2021/12/26 03:31:46;;;;;;;12.63;4.90;;;;;;;13.10;73.41;98853.47;5192088;23;20034;-96
2021/12/26 09:59:32;;;;;;;23.70;14.35;;;;;;;13.57;74.42;98970.84;5719302;23;20037;-90
2021/12/26 10:14:54;;;;;;;71.75;22.45;;;;;;;13.93;73.95;98971.47;4882530;29;20062;-96
2021/12/26 10:17:31;;;;;;;96.57;34.00;;;;;;;14.03;73.88;98979.25;4883946;29;20070;-96
2021/12/26 10:30:24;;;;;;;45.80;36.75;;;;;;;13.95;73.80;98977.41;5236646;23;20062;-96
2021/12/26 10:32:57;;;;;;;98.43;33.90;;;;;;;13.99;73.99;98978.72;4865471;29;20046;-96
2021/12/26 10:35:23;;;;;;;12.07;9.30;;;;;;;14.29;73.45;98990.50;4864516;29;20022;-96
2021/12/26 10:37:51;;;;;;;41.63;30.30;;;;;;;14.17;73.96;98973.31;4867411;29;20046;-96
2021/12/26 10:40:28;;;;;;;10.00;7.55;;;;;;;14.26;74.05;98967.06;4868625;29;20022;-96
2021/12/26 10:42:57;;;;;;;29.55;16.33;;;;;;;14.44;74.24;98966.91;5202727;23;20058;-95
2021/12/26 10:45:32;;;;;;;12.32;6.72;;;;;;;14.92;74.02;98971.56;4864125;29;20062;-95
2021/12/26 10:48:03;;;;;;;28.05;13.55;;;;;;;15.06;73.39;98970.88;4863076;29;20106;-96
2021/12/26 10:50:31;;;;;;;8.30;4.77;;;;;;;15.01;72.97;98960.81;4863607;29;20116;-96
2021/12/26 10:53:01;;;;;;;100.80;26.55;;;;;;;14.96;72.21;98967.59;4863287;29;20041;-96
2021/12/26 10:55:31;;;;;;;50.15;16.33;;;;;;;14.94;72.37;98965.09;4863057;29;20098;-96
2021/12/26 10:57:59;;;;;;;32.33;16.45;;;;;;;14.95;72.40;98960.63;4862357;29;20081;-96
2021/12/26 11:00:32;;;;;;;32.88;29.70;;;;;;;14.99;72.30;98956.69;4861813;29;20030;-96
2021/12/26 11:03:03;;;;;;;121.47;60.88;;;;;;;15.10;72.14;98966.06;4862334;29;20116;-96
2021/12/26 11:05:43;;;;;;;69.30;25.00;;;;;;;14.99;72.02;98948.78;4863690;29;20057;-96
2021/12/26 11:08:18;;;;;;;25.90;14.95;;;;;;;15.07;72.31;98946.91;4864385;29;20137;-96
2021/12/26 11:10:52;;;;;;;129.60;42.33;;;;;;;15.21;71.74;98952.50;4863974;29;20038;-96
2021/12/26 11:16:00;;;;;;;566.92;152.45;;;;;;;15.36;70.85;98947.31;4915435;23;20139;-96
2021/12/26 11:18:27;;;;;;;371.27;103.40;;;;;;;15.37;70.73;98941.88;4864375;29;20033;-96
2021/12/26 11:26:12;;;;;;;351.33;88.90;;;;;;;15.47;70.85;98955.72;5587182;23;20061;-96
2021/12/26 11:36:25;;;;;;;7.57;4.60;;;;;;;15.56;70.53;98937.16;5120167;23;20270;-96
2021/12/26 11:38:53;;;;;;;12.52;8.85;;;;;;;15.63;70.20;98946.88;4884341;29;20085;-96
2021/12/26 11:41:40;;;;;;;40.15;24.17;;;;;;;15.69;70.42;98940.06;4884603;29;20025;-96
2021/12/26 11:44:37;;;;;;;12.80;9.80;;;;;;;16.04;70.43;98957.28;4884487;29;20037;-96
2021/12/26 11:47:57;;;;;;;15.73;12.10;;;;;;;16.09;69.52;98937.41;4882148;29;20029;-96
2021/12/26 11:50:22;;;;;;;14.13;8.52;;;;;;;16.16;69.09;98955.06;4882533;29;20120;-96
2021/12/26 11:53:21;;;;;;;19.58;14.85;;;;;;;16.28;68.20;98930.81;4882128;29;20040;-96
2021/12/26 11:56:03;;;;;;;29.77;24.35;;;;;;;16.45;67.91;98941.13;5000241;23;20062;-96
2021/12/26 11:59:06;;;;;;;16.15;10.02;;;;;;;16.33;68.01;98952.28;4861323;29;20042;-96
2021/12/26 12:01:34;;;;;;;16.92;8.20;;;;;;;16.02;67.95;98934.63;4862738;29;20022;-96
2021/12/26 12:04:18;;;;;;;44.33;26.23;;;;;;;15.94;67.72;98948.75;5331050;23;20056;-96
2021/12/26 12:06:47;;;;;;;19.60;15.15;;;;;;;15.67;68.27;98932.31;4878880;29;20072;-96
2021/12/26 12:09:28;;;;;;;41.17;32.20;;;;;;;15.62;67.90;98947.03;4880932;29;20057;-96
2021/12/26 12:12:10;;;;;;;23.17;12.00;;;;;;;15.55;68.92;98959.34;4882213;29;20100;-96
2021/12/26 12:14:50;;;;;;;9.10;6.47;;;;;;;15.42;69.22;98933.41;4882518;29;20081;-96
2021/12/26 12:17:28;;;;;;;26.33;24.02;;;;;;;15.33;69.06;98940.56;4883090;29;20036;-96
2021/12/26 12:20:10;;;;;;;7.07;3.53;;;;;;;15.35;69.03;98957.09;4882868;29;20058;-96
2021/12/26 12:22:37;;;;;;;169.77;48.65;;;;;;;15.17;69.85;98935.34;4882113;29;20026;-96
2021/12/26 12:25:33;;;;;;;61.58;19.65;;;;;;;15.34;69.77;98946.66;4882795;29;20032;-96
2021/12/26 12:28:08;;;;;;;8.90;7.03;;;;;;;15.13;68.15;98926.91;4883189;29;20077;-96
2021/12/26 12:30:35;;;;;;;128.88;40.55;;;;;;;15.06;67.91;98918.00;4882590;29;20061;-96
2021/12/26 12:33:30;;;;;;;75.30;33.58;;;;;;;15.24;68.65;98913.34;4882420;29;20037;-96
2021/12/26 12:36:08;;;;;;;5.03;2.15;;;;;;;15.43;68.42;98940.38;4881367;29;20038;-96
2021/12/26 12:38:39;;;;;;;172.32;47.47;;;;;;;15.34;68.76;98915.75;4881216;29;20089;-96
2021/12/26 12:41:28;;;;;;;175.07;48.55;;;;;;;15.18;69.02;98937.78;4919004;23;20053;-96
2021/12/26 12:43:56;;;;;;;137.40;43.60;;;;;;;15.40;70.14;98948.63;4881864;29;20037;-96
2021/12/26 12:49:00;;;;;;;145.20;44.13;;;;;;;15.89;68.37;98937.03;5371885;23;20101;-96
2021/12/26 12:51:30;;;;;;;180.05;43.85;;;;;;;16.19;68.53;98930.88;4881454;29;20024;-96
2021/12/26 12:54:02;;;;;;;6.18;2.85;;;;;;;16.67;68.04;98920.06;4878841;29;20093;-96
2021/12/26 12:56:35;;;;;;;172.65;46.28;;;;;;;17.22;66.97;98932.13;4878101;29;20064;-96
2021/12/26 12:59:13;;;;;;;190.52;46.58;;;;;;;17.16;65.01;98924.91;4876785;29;20089;-96
2021/12/26 13:01:50;;;;;;;6.15;2.30;;;;;;;16.96;63.71;98915.81;4876014;29;20029;-96
2021/12/26 13:04:18;;;;;;;3.72;0.73;;;;;;;16.80;64.93;98922.09;4876126;29;20097;-96
2021/12/26 13:07:03;;;;;;;2.42;0.80;;;;;;;16.81;65.34;98919.28;4875607;29;20029;-96
2021/12/26 13:09:31;;;;;;;5.53;1.33;;;;;;;16.68;65.42;98913.75;4876656;29;20053;-96
2021/12/26 13:12:03;;;;;;;4.88;0.60;;;;;;;16.48;64.06;98908.13;4878072;29;20034;-96
2021/12/26 13:14:52;;;;;;;1.85;0.40;;;;;;;16.41;64.80;98896.59;4880083;29;20034;-96
2021/12/26 13:17:25;;;;;;;3.55;0.60;;;;;;;16.46;65.26;98916.25;4881303;29;20058;-96
2021/12/26 13:19:57;;;;;;;3.80;2.03;;;;;;;16.15;65.58;98889.88;4881840;29;20026;-96
2021/12/26 13:22:36;;;;;;;3.97;1.13;;;;;;;16.25;65.98;98897.56;4881262;29;20053;-96
2021/12/26 13:25:05;;;;;;;4.13;0.68;;;;;;;15.95;65.31;98880.75;4880929;29;20044;-96
2021/12/26 13:27:31;;;;;;;2.53;0.60;;;;;;;16.09;65.77;98895.84;4880529;29;20037;-96
2021/12/26 13:29:57;;;;;;;2.95;0.73;;;;;;;15.89;65.89;98892.84;4880174;29;20125;-96
2021/12/26 13:34:58;;;;;;;2.92;0.85;;;;;;;15.85;66.27;98902.97;4878364;29;20054;-96
2021/12/26 13:37:23;;;;;;;2.92;0.73;;;;;;;15.73;66.61;98904.38;4885243;29;20077;-96
2021/12/26 13:50:14;;;;;;;3.28;0.50;;;;;;;15.34;66.73;98894.59;5516577;23;20087;-96
2021/12/26 13:52:41;;;;;;;5.63;0.70;;;;;;;15.34;67.16;98901.72;4884703;29;20034;-96
2021/12/26 13:55:07;;;;;;;2.13;0.40;;;;;;;15.53;66.70;98911.88;4884838;29;20026;-96
2021/12/26 13:57:33;;;;;;;3.08;1.40;;;;;;;15.49;67.13;98892.06;4886918;29;20068;-96
2021/12/26 14:00:02;;;;;;;2.88;0.50;;;;;;;15.47;67.03;98894.06;4888422;29;20042;-96
2021/12/26 14:28:20;;;;;;;1.40;0.20;;;;;;;15.23;68.25;98881.78;5366445;23;20065;-96
2021/12/26 14:30:48;;;;;;;1.20;0.57;;;;;;;15.20;68.22;98877.63;4868042;29;20034;-96
2021/12/26 14:33:15;;;;;;;1.00;0.30;;;;;;;15.03;67.72;98887.47;4868544;29;20026;-96
2021/12/26 14:35:44;;;;;;;5.53;0.57;;;;;;;15.04;67.95;98890.91;4868895;29;20030;-96
2021/12/26 19:12:17;;;;;;;18.80;7.22;;;;;;;10.35;72.80;98859.16;5273448;23;20076;-96
2021/12/26 19:14:44;;;;;;;16.73;7.15;;;;;;;10.48;72.93;98885.91;4866687;29;20058;-96
2021/12/26 19:17:11;;;;;;;13.05;5.45;;;;;;;10.30;72.86;98863.03;4866511;29;20036;-95
2021/12/26 19:19:37;;;;;;;11.05;5.28;;;;;;;10.35;73.03;98859.16;4865896;29;20021;-96
2021/12/26 19:22:03;;;;;;;10.00;4.55;;;;;;;10.44;72.87;98880.13;4866195;29;20024;-96
2021/12/26 19:24:29;;;;;;;8.73;4.32;;;;;;;10.28;72.80;98851.81;4866986;29;20021;-96
2021/12/26 19:26:55;;;;;;;14.45;4.97;;;;;;;10.28;73.01;98846.56;4867434;29;20034;-96
2021/12/26 19:29:21;;;;;;;9.50;5.25;;;;;;;10.26;73.08;98837.19;4865881;29;20041;-96
2021/12/26 19:31:48;;;;;;;9.07;4.32;;;;;;;10.25;73.26;98833.75;4866322;29;20093;-96
2021/12/26 19:34:15;;;;;;;12.70;5.50;;;;;;;10.18;73.19;98834.44;4865113;29;20112;-96
2021/12/26 19:36:42;;;;;;;10.60;5.95;;;;;;;10.26;73.03;98851.13;4863938;29;20026;-96
2021/12/26 19:39:08;;;;;;;11.93;5.53;;;;;;;10.11;72.90;98836.78;4966295;23;20063;-96
2021/12/26 19:41:35;;;;;;;8.55;4.57;;;;;;;10.08;72.59;98831.84;4882302;29;20093;-96
2021/12/26 19:44:01;;;;;;;11.38;5.35;;;;;;;9.86;72.27;98831.16;4882445;29;20056;-96
2021/12/26 19:46:29;;;;;;;12.63;4.90;;;;;;;9.83;73.30;98834.03;4880496;29;20029;-96
2021/12/26 19:48:57;;;;;;;17.98;6.32;;;;;;;9.94;72.89;98833.09;4882324;29;20028;-96
2021/12/26 19:51:27;;;;;;;17.42;5.95;;;;;;;9.97;73.29;98834.59;4882591;29;20067;-96
2021/12/26 19:53:53;;;;;;;13.30;5.47;;;;;;;9.98;73.35;98833.63;4880651;29;20029;-96
2021/12/26 19:56:19;;;;;;;14.50;4.75;;;;;;;9.96;72.75;98831.16;4880909;29;20032;-96
2021/12/26 19:58:45;;;;;;;9.65;5.20;;;;;;;9.98;72.92;98833.63;4879957;29;20041;-96
2021/12/26 20:01:10;;;;;;;8.73;4.45;;;;;;;9.92;72.68;98829.78;4880456;29;20037;-96
2021/12/26 20:03:37;;;;;;;8.75;5.78;;;;;;;9.85;72.89;98823.41;4880053;29;20095;-96
2021/12/26 20:06:05;;;;;;;10.45;5.22;;;;;;;9.99;73.22;98840.53;4880150;29;20029;-96
2021/12/26 20:08:32;;;;;;;13.15;5.88;;;;;;;10.00;73.18;98836.94;4879545;29;20029;-96
2021/12/26 20:10:59;;;;;;;9.25;5.28;;;;;;;9.85;72.97;98815.56;4878065;29;20033;-96
2021/12/26 20:13:29;;;;;;;8.60;4.20;;;;;;;9.79;72.71;98803.81;4877773;29;20037;-96
2021/12/26 20:16:15;;;;;;;9.43;4.35;;;;;;;9.86;72.98;98823.28;4878019;29;20022;-96
2021/12/26 20:18:45;;;;;;;9.18;4.13;;;;;;;9.78;72.72;98819.72;4877425;29;20029;-96
2021/12/26 20:21:14;;;;;;;8.48;4.82;;;;;;;9.84;72.53;98833.09;4877938;29;20033;-96
2021/12/26 20:23:41;;;;;;;9.00;4.93;;;;;;;9.84;72.79;98846.19;4878544;29;20029;-96
2021/12/26 20:26:09;;;;;;;11.82;4.40;;;;;;;9.77;73.04;98839.00;4878132;29;20034;-96
2021/12/26 20:28:36;;;;;;;11.48;5.65;;;;;;;9.84;72.96;98851.44;4877671;29;20037;-96
2021/12/26 20:31:05;;;;;;;10.30;5.40;;;;;;;9.86;72.83;98852.13;4876629;29;20010;-96
2021/12/26 20:33:32;;;;;;;9.15;5.13;;;;;;;9.77;73.23;98820.66;4876114;29;20097;-96
2021/12/26 20:35:57;;;;;;;15.68;6.28;;;;;;;9.77;73.48;98818.88;4875593;29;20061;-96
2021/12/26 20:38:25;;;;;;;16.83;8.75;;;;;;;9.86;74.12;98811.97;4884782;29;20025;-96
2021/12/26 20:40:51;;;;;;;18.27;8.80;;;;;;;9.92;74.11;98820.09;4884198;29;20054;-96
2021/12/26 20:43:17;;;;;;;14.40;7.45;;;;;;;9.97;73.62;98819.69;4947642;23;20046;-96
2021/12/26 20:45:44;;;;;;;11.60;7.63;;;;;;;10.02;73.68;98816.66;4864841;29;20073;-96
2021/12/26 20:48:11;;;;;;;12.90;6.65;;;;;;;10.04;73.67;98812.91;4864739;29;20037;-96
2021/12/26 20:50:37;;;;;;;12.10;6.50;;;;;;;10.14;73.68;98818.16;4864969;29;20053;-96
2021/12/26 20:53:03;;;;;;;10.95;6.75;;;;;;;10.16;73.53;98816.22;4864573;29;20034;-96
2021/12/26 20:55:29;;;;;;;13.60;6.50;;;;;;;10.11;73.50;98810.56;4864687;29;20030;-96
2021/12/26 20:57:54;;;;;;;10.30;6.22;;;;;;;10.13;73.07;98813.91;4865136;29;20034;-96
2021/12/26 21:00:24;;;;;;;7.72;5.68;;;;;;;10.22;73.56;98839.25;4864487;29;20018;-96
2021/12/26 21:02:52;;;;;;;10.23;5.15;;;;;;;10.22;73.36;98843.69;4952385;23;20057;-96
2021/12/26 21:05:18;;;;;;;9.60;6.07;;;;;;;10.13;73.48;98821.75;4881707;29;20044;-96
2021/12/26 21:07:46;;;;;;;11.43;6.18;;;;;;;10.28;74.13;98843.94;4880960;29;20062;-96
2021/12/26 21:10:12;;;;;;;9.43;5.75;;;;;;;10.16;73.95;98828.50;4880199;29;20036;-96
2021/12/26 21:12:38;;;;;;;11.50;5.60;;;;;;;10.25;74.16;98836.38;4880194;29;20021;-96
2021/12/26 21:15:05;;;;;;;11.07;5.72;;;;;;;10.31;73.88;98825.34;4871087;29;20033;-95
2021/12/26 21:17:32;;;;;;;12.00;6.53;;;;;;;10.49;74.25;98832.50;4866753;29;20036;-96
2021/12/26 21:19:58;;;;;;;9.23;5.60;;;;;;;10.60;74.44;98832.28;4866588;29;20029;-95
2021/12/26 21:22:24;;;;;;;7.90;5.15;;;;;;;10.60;74.51;98820.97;4867066;29;20092;-96
2021/12/26 21:24:49;;;;;;;69.63;28.00;;;;;;;10.76;74.34;98842.19;4866657;29;20519;-96
2021/12/26 21:27:15;;;;;;;12.00;5.82;;;;;;;10.73;74.35;98816.25;4867315;29;20037;-96
2021/12/26 21:29:40;;;;;;;16.55;8.07;;;;;;;10.78;74.29;98803.53;4867949;29;20096;-96
2021/12/26 21:32:07;;;;;;;25.20;7.40;;;;;;;10.87;74.13;98802.63;4866877;29;20102;-96
2021/12/26 21:34:34;;;;;;;20.42;6.72;;;;;;;10.86;74.71;98800.16;4867892;29;20057;-95
2021/12/26 21:36:59;;;;;;;16.02;7.13;;;;;;;11.02;74.65;98816.13;4867536;29;20040;-96
2021/12/26 21:39:25;;;;;;;17.77;6.97;;;;;;;11.14;74.53;98810.63;4868018;29;20033;-96
2021/12/26 21:41:51;;;;;;;13.32;6.18;;;;;;;11.15;74.61;98804.44;4868517;29;20029;-96
2021/12/26 21:44:16;;;;;;;10.95;7.22;;;;;;;11.28;74.51;98805.72;4867812;29;20040;-96
2021/12/26 21:46:44;;;;;;;16.58;7.72;;;;;;;11.22;74.66;98790.56;4866518;29;20057;-96
2021/12/26 21:49:10;;;;;;;11.98;7.13;;;;;;;11.31;74.36;98801.97;4866722;29;20029;-96
2021/12/26 21:51:38;;;;;;;9.52;5.63;;;;;;;11.41;73.84;98821.13;4866584;29;20049;-96
2021/12/26 21:54:05;;;;;;;11.75;6.68;;;;;;;11.28;74.27;98791.78;4876291;29;20017;-96
2021/12/26 21:56:32;;;;;;;11.20;5.45;;;;;;;11.51;73.87;98811.41;4878409;29;20098;-96
2021/12/26 21:58:58;;;;;;;10.30;5.43;;;;;;;11.42;73.91;98798.31;4879556;29;20022;-96
2021/12/26 22:01:24;;;;;;;27.20;7.97;;;;;;;11.50;73.83;98799.22;4879896;29;20032;-96
2021/12/26 22:03:50;;;;;;;12.13;7.07;;;;;;;11.45;74.12;98790.13;4881279;29;20042;-96
2021/12/26 22:06:16;;;;;;;532.20;169.82;;;;;;;11.48;73.95;98780.13;4885197;29;20032;-96
2021/12/26 22:08:42;;;;;;;540.00;191.10;;;;;;;11.52;74.34;98789.38;4885130;29;20037;-96
2021/12/26 22:11:09;;;;;;;15.15;5.82;;;;;;;11.59;74.01;98797.50;4895431;23;20081;-96
2021/12/26 22:13:34;;;;;;;9.23;5.97;;;;;;;11.51;74.00;98792.16;4874495;29;20029;-95
2021/12/26 22:16:00;;;;;;;9.50;5.97;;;;;;;11.61;74.25;98802.59;4872564;29;20034;-95
2021/12/26 22:18:26;;;;;;;556.22;192.88;;;;;;;11.54;74.33;98770.84;4871754;29;20038;-96
2021/12/26 22:20:51;;;;;;;534.53;162.77;;;;;;;11.57;74.40;98774.94;4872436;29;20075;-96
2021/12/26 22:23:17;;;;;;;380.60;118.35;;;;;;;11.57;74.18;98767.91;4871412;29;20033;-96
2021/12/26 22:25:43;;;;;;;110.35;49.00;;;;;;;11.64;73.92;98762.88;4856948;29;20156;-96
2021/12/26 22:28:13;;;;;;;298.90;98.65;;;;;;;11.70;74.04;98757.00;4871662;29;20071;-96
2021/12/26 22:30:39;;;;;;;93.03;33.45;;;;;;;11.65;73.80;98746.09;4872361;29;20484;-96
2021/12/26 22:33:05;;;;;;;14.15;9.07;;;;;;;11.80;73.84;98770.88;4872386;29;20021;-96
2021/12/26 22:35:33;;;;;;;14.30;7.75;;;;;;;11.61;73.54;98758.75;4872248;29;20045;-96
2021/12/26 22:37:59;;;;;;;14.98;5.85;;;;;;;11.68;73.83;98748.44;4872908;29;20089;-96
2021/12/26 22:40:25;;;;;;;8.10;3.50;;;;;;;11.73;73.66;98730.41;4873555;29;20026;-96
2021/12/26 22:42:51;;;;;;;7.90;4.22;;;;;;;12.06;72.80;98746.44;4873949;29;20120;-96
2021/12/26 22:45:18;;;;;;;8.90;4.07;;;;;;;12.07;72.69;98722.63;4872167;29;20063;-96
2021/12/26 22:47:44;;;;;;;44.15;12.18;;;;;;;12.08;72.32;98726.91;4872431;29;20036;-96
2021/12/26 22:50:14;;;;;;;34.33;10.55;;;;;;;12.00;72.16;98731.28;4872777;29;20036;-96
2021/12/26 22:52:42;;;;;;;34.53;11.10;;;;;;;12.01;72.54;98732.94;4873525;29;20121;-96
2021/12/26 22:55:10;;;;;;;34.75;12.63;;;;;;;12.07;72.24;98734.97;4872811;29;20468;-96
2021/12/26 22:57:37;;;;;;;56.65;15.43;;;;;;;12.14;72.24;98732.53;4872598;29;20034;-96
2021/12/26 23:00:11;;;;;;;42.13;12.40;;;;;;;11.90;72.79;98726.94;4873415;29;20217;-96
2021/12/26 23:02:38;;;;;;;13.35;5.60;;;;;;;11.99;72.74;98722.56;4872485;29;20037;-96
2021/12/26 23:05:04;;;;;;;32.83;10.13;;;;;;;12.16;72.00;98725.28;4871749;29;20049;-96
2021/12/26 23:07:31;;;;;;;37.67;11.82;;;;;;;12.03;72.34;98731.00;4870635;29;20419;-96
2021/12/26 23:09:57;;;;;;;39.28;11.35;;;;;;;12.04;72.08;98722.09;4871626;29;20037;-96
2021/12/26 23:12:23;;;;;;;6.78;3.30;;;;;;;12.28;71.85;98745.09;4871839;29;20094;-95
2021/12/26 23:14:50;;;;;;;8.00;3.72;;;;;;;11.92;71.96;98720.72;4857087;29;20045;-96
2021/12/26 23:17:17;;;;;;;17.13;5.55;;;;;;;11.86;72.56;98716.84;4871958;29;20077;-96
2021/12/26 23:19:43;;;;;;;12.15;4.50;;;;;;;11.78;72.74;98722.06;4871980;29;20022;-96
2021/12/26 23:22:10;;;;;;;270.20;82.93;;;;;;;11.69;72.99;98718.56;4874470;29;20039;-96
2021/12/26 23:24:37;;;;;;;9.45;3.72;;;;;;;11.73;72.92;98717.28;4872277;29;20034;-96
2021/12/26 23:27:02;;;;;;;7.40;3.85;;;;;;;11.69;72.66;98714.13;4858305;29;20048;-96
2021/12/26 23:29:28;;;;;;;12.88;4.22;;;;;;;11.88;72.69;98735.94;4873081;29;20029;-96
2021/12/26 23:31:54;;;;;;;28.30;8.30;;;;;;;11.79;72.98;98729.81;4858086;29;20044;-96
2021/12/26 23:34:21;;;;;;;77.55;20.92;;;;;;;11.66;72.64;98703.91;4873503;29;20040;-96
2021/12/26 23:36:50;;;;;;;79.30;21.33;;;;;;;11.67;72.97;98699.44;4858648;29;20036;-96
2021/12/26 23:39:17;;;;;;;169.75;44.67;;;;;;;11.83;72.79;98725.06;4882357;29;20025;-96
2021/12/26 23:41:48;;;;;;;162.27;44.90;;;;;;;11.78;73.02;98701.84;4873912;29;20128;-96
2021/12/26 23:44:14;;;;;;;;;;;;;;;11.92;72.97;98720.72;4876973;29;20028;-96
2021/12/26 23:46:40;;;;;;;130.60;39.97;;;;;;;11.74;72.39;98690.00;4874978;29;19920;-97
2021/12/26 23:49:06;;;;;;;118.80;39.20;;;;;;;11.74;72.97;98684.72;4875394;29;20473;-96
2021/12/26 23:51:33;;;;;;;115.40;38.10;;;;;;;11.96;72.42;98686.06;4872729;29;20036;-96
2021/12/26 23:53:58;;;;;;;145.43;43.40;;;;;;;11.98;71.58;98678.00;4858220;29;20061;-96
2021/12/26 23:56:26;;;;;;;87.47;30.52;;;;;;;11.95;72.77;98699.34;4871958;29;20040;-96
2021/12/26 23:58:57;;;;;;;122.93;39.00;;;;;;;12.00;72.67;98670.78;4870998;29;20022;-96
